sensor_id;sensor_type;location;lat;lon;timestamp;temperature;humidity
34646;DHT22;20857;47.808;12.482;2022-09-09T00:04:00;15.30;99.90
34646;DHT22;20857;47.808;12.482;2022-09-09T00:06:30;15.40;99.90
34646;DHT22;20857;47.808;12.482;2022-09-09T00:12:14;15.30;99.90
34646;DHT22;20857;47.808;12.482;2022-09-09T00:17:18;15.40;99.90
34646;DHT22;20857;47.808;12.482;2022-09-09T00:19:56;15.40;99.90
34646;DHT22;20857;47.808;12.482;2022-09-09T00:22:28;15.40;99.90
34646;DHT22;20857;47.808;12.482;2022-09-09T00:27:47;15.50;99.90
34646;DHT22;20857;47.808;12.482;2022-09-09T00:30:14;15.50;99.90
34646;DHT22;20857;47.808;12.482;2022-09-09T00:32:44;15.40;99.90
34646;DHT22;20857;47.808;12.482;2022-09-09T00:37:35;15.50;99.90
34646;DHT22;20857;47.808;12.482;2022-09-09T00:40:11;15.40;99.90
34646;DHT22;20857;47.808;12.482;2022-09-09T00:43:10;15.40;99.90
34646;DHT22;20857;47.808;12.482;2022-09-09T00:45:57;15.40;99.90
34646;DHT22;20857;47.808;12.482;2022-09-09T00:49:01;15.30;99.90
34646;DHT22;20857;47.808;12.482;2022-09-09T00:51:51;15.30;99.90
34646;DHT22;20857;47.808;12.482;2022-09-09T00:57:28;15.30;99.90
34646;DHT22;20857;47.808;12.482;2022-09-09T01:03:12;15.30;99.90
34646;DHT22;20857;47.808;12.482;2022-09-09T01:11:09;15.40;99.90
34646;DHT22;20857;47.808;12.482;2022-09-09T01:13:36;15.40;99.90
34646;DHT22;20857;47.808;12.482;2022-09-09T01:16:04;15.40;99.90
34646;DHT22;20857;47.808;12.482;2022-09-09T01:18:40;15.40;99.90
34646;DHT22;20857;47.808;12.482;2022-09-09T01:26:51;15.40;99.90
34646;DHT22;20857;47.808;12.482;2022-09-09T01:29:18;15.40;99.90
34646;DHT22;20857;47.808;12.482;2022-09-09T01:31:58;15.30;99.90
34646;DHT22;20857;47.808;12.482;2022-09-09T01:34:29;15.30;99.90
34646;DHT22;20857;47.808;12.482;2022-09-09T01:37:03;15.30;99.90
34646;DHT22;20857;47.808;12.482;2022-09-09T01:39:36;15.30;99.90
34646;DHT22;20857;47.808;12.482;2022-09-09T01:42:05;15.30;99.90
34646;DHT22;20857;47.808;12.482;2022-09-09T01:44:32;15.40;99.90
34646;DHT22;20857;47.808;12.482;2022-09-09T01:46:59;15.30;99.90
34646;DHT22;20857;47.808;12.482;2022-09-09T01:49:25;15.50;99.90
34646;DHT22;20857;47.808;12.482;2022-09-09T01:51:53;15.40;99.90
34646;DHT22;20857;47.808;12.482;2022-09-09T01:54:21;15.40;99.90
34646;DHT22;20857;47.808;12.482;2022-09-09T02:02:30;15.40;99.90
34646;DHT22;20857;47.808;12.482;2022-09-09T02:05:06;15.40;99.90
34646;DHT22;20857;47.808;12.482;2022-09-09T02:07:39;15.40;99.90
34646;DHT22;20857;47.808;12.482;2022-09-09T02:12:51;15.50;99.90
34646;DHT22;20857;47.808;12.482;2022-09-09T02:15:47;15.40;99.90
34646;DHT22;20857;47.808;12.482;2022-09-09T02:18:43;15.50;99.90
34646;DHT22;20857;47.808;12.482;2022-09-09T02:21:06;15.40;99.90
34646;DHT22;20857;47.808;12.482;2022-09-09T02:23:34;15.40;99.90
34646;DHT22;20857;47.808;12.482;2022-09-09T02:26:00;15.40;99.90
34646;DHT22;20857;47.808;12.482;2022-09-09T02:28:30;15.40;99.90
34646;DHT22;20857;47.808;12.482;2022-09-09T02:30:57;15.40;99.90
34646;DHT22;20857;47.808;12.482;2022-09-09T02:33:27;15.40;99.90
34646;DHT22;20857;47.808;12.482;2022-09-09T02:35:54;15.40;99.90
34646;DHT22;20857;47.808;12.482;2022-09-09T02:38:25;15.40;99.90
34646;DHT22;20857;47.808;12.482;2022-09-09T02:40:51;15.40;99.90
34646;DHT22;20857;47.808;12.482;2022-09-09T02:43:17;15.40;99.90
34646;DHT22;20857;47.808;12.482;2022-09-09T02:48:40;15.50;99.90
34646;DHT22;20857;47.808;12.482;2022-09-09T02:51:28;15.40;99.90
34646;DHT22;20857;47.808;12.482;2022-09-09T02:56:53;15.40;99.90
34646;DHT22;20857;47.808;12.482;2022-09-09T02:59:22;15.40;99.90
34646;DHT22;20857;47.808;12.482;2022-09-09T03:01:50;15.40;99.90
34646;DHT22;20857;47.808;12.482;2022-09-09T03:04:15;15.30;99.90
34646;DHT22;20857;47.808;12.482;2022-09-09T03:06:41;15.20;99.90
34646;DHT22;20857;47.808;12.482;2022-09-09T03:09:07;15.30;99.90
34646;DHT22;20857;47.808;12.482;2022-09-09T03:11:33;15.10;99.90
34646;DHT22;20857;47.808;12.482;2022-09-09T03:13:58;15.10;99.90
34646;DHT22;20857;47.808;12.482;2022-09-09T03:16:24;15.10;99.90
34646;DHT22;20857;47.808;12.482;2022-09-09T03:18:50;15.10;99.90
34646;DHT22;20857;47.808;12.482;2022-09-09T03:21:16;15.10;99.90
34646;DHT22;20857;47.808;12.482;2022-09-09T03:23:41;15.10;99.90
34646;DHT22;20857;47.808;12.482;2022-09-09T03:26:07;15.10;99.90
34646;DHT22;20857;47.808;12.482;2022-09-09T03:28:33;15.10;99.90
34646;DHT22;20857;47.808;12.482;2022-09-09T03:31:03;15.10;99.90
34646;DHT22;20857;47.808;12.482;2022-09-09T03:33:29;15.10;99.90
34646;DHT22;20857;47.808;12.482;2022-09-09T03:35:57;15.10;99.90
34646;DHT22;20857;47.808;12.482;2022-09-09T03:38:24;15.10;99.90
34646;DHT22;20857;47.808;12.482;2022-09-09T03:40:54;15.10;99.90
34646;DHT22;20857;47.808;12.482;2022-09-09T03:43:28;15.00;99.90
34646;DHT22;20857;47.808;12.482;2022-09-09T03:45:54;15.00;99.90
34646;DHT22;20857;47.808;12.482;2022-09-09T03:48:23;15.00;99.90
34646;DHT22;20857;47.808;12.482;2022-09-09T03:50:51;14.90;99.90
34646;DHT22;20857;47.808;12.482;2022-09-09T03:53:20;14.90;99.90
34646;DHT22;20857;47.808;12.482;2022-09-09T03:55:50;14.80;99.90
34646;DHT22;20857;47.808;12.482;2022-09-09T03:58:16;14.80;99.90
34646;DHT22;20857;47.808;12.482;2022-09-09T04:00:56;14.70;99.90
34646;DHT22;20857;47.808;12.482;2022-09-09T04:03:23;14.70;99.90
34646;DHT22;20857;47.808;12.482;2022-09-09T04:05:51;14.70;99.90
34646;DHT22;20857;47.808;12.482;2022-09-09T04:08:17;14.70;99.90
34646;DHT22;20857;47.808;12.482;2022-09-09T04:10:45;14.60;99.90
34646;DHT22;20857;47.808;12.482;2022-09-09T04:13:13;14.60;99.90
34646;DHT22;20857;47.808;12.482;2022-09-09T04:15:39;14.60;99.90
34646;DHT22;20857;47.808;12.482;2022-09-09T04:18:05;14.70;99.90
34646;DHT22;20857;47.808;12.482;2022-09-09T04:20:31;14.70;99.90
34646;DHT22;20857;47.808;12.482;2022-09-09T04:22:58;14.70;99.90
34646;DHT22;20857;47.808;12.482;2022-09-09T04:25:23;14.70;99.90
34646;DHT22;20857;47.808;12.482;2022-09-09T04:27:54;14.70;99.90
34646;DHT22;20857;47.808;12.482;2022-09-09T04:30:20;14.80;99.90
34646;DHT22;20857;47.808;12.482;2022-09-09T04:32:46;14.60;99.90
34646;DHT22;20857;47.808;12.482;2022-09-09T04:35:12;14.70;99.90
34646;DHT22;20857;47.808;12.482;2022-09-09T04:37:37;14.70;99.90
34646;DHT22;20857;47.808;12.482;2022-09-09T04:40:03;14.70;99.90
34646;DHT22;20857;47.808;12.482;2022-09-09T04:42:29;14.60;99.90
34646;DHT22;20857;47.808;12.482;2022-09-09T04:44:54;14.70;99.90
34646;DHT22;20857;47.808;12.482;2022-09-09T04:47:20;14.70;99.90
34646;DHT22;20857;47.808;12.482;2022-09-09T04:49:46;14.70;99.90
34646;DHT22;20857;47.808;12.482;2022-09-09T04:52:13;14.70;99.90
34646;DHT22;20857;47.808;12.482;2022-09-09T04:54:38;14.60;99.90
34646;DHT22;20857;47.808;12.482;2022-09-09T04:57:04;14.70;99.90
34646;DHT22;20857;47.808;12.482;2022-09-09T04:59:30;14.60;99.90
34646;DHT22;20857;47.808;12.482;2022-09-09T05:01:56;14.60;99.90
34646;DHT22;20857;47.808;12.482;2022-09-09T05:04:22;14.60;99.90
34646;DHT22;20857;47.808;12.482;2022-09-09T05:06:47;14.60;99.90
34646;DHT22;20857;47.808;12.482;2022-09-09T05:09:14;14.60;99.90
34646;DHT22;20857;47.808;12.482;2022-09-09T05:11:39;14.60;99.90
34646;DHT22;20857;47.808;12.482;2022-09-09T05:14:11;14.50;99.90
34646;DHT22;20857;47.808;12.482;2022-09-09T05:16:37;14.60;99.90
34646;DHT22;20857;47.808;12.482;2022-09-09T05:19:03;14.60;99.90
34646;DHT22;20857;47.808;12.482;2022-09-09T05:21:29;14.70;99.90
34646;DHT22;20857;47.808;12.482;2022-09-09T05:23:56;14.70;99.90
34646;DHT22;20857;47.808;12.482;2022-09-09T05:26:23;14.70;99.90
34646;DHT22;20857;47.808;12.482;2022-09-09T05:28:49;14.70;99.90
34646;DHT22;20857;47.808;12.482;2022-09-09T05:31:38;14.80;99.90
34646;DHT22;20857;47.808;12.482;2022-09-09T05:34:13;14.80;99.90
34646;DHT22;20857;47.808;12.482;2022-09-09T05:36:42;14.90;99.90
34646;DHT22;20857;47.808;12.482;2022-09-09T05:39:08;14.90;99.90
34646;DHT22;20857;47.808;12.482;2022-09-09T05:41:33;15.00;99.90
34646;DHT22;20857;47.808;12.482;2022-09-09T05:44:01;15.00;99.90
34646;DHT22;20857;47.808;12.482;2022-09-09T05:46:36;15.10;99.90
34646;DHT22;20857;47.808;12.482;2022-09-09T05:49:02;15.20;99.90
34646;DHT22;20857;47.808;12.482;2022-09-09T05:51:29;15.10;99.90
34646;DHT22;20857;47.808;12.482;2022-09-09T05:53:57;15.10;99.90
34646;DHT22;20857;47.808;12.482;2022-09-09T05:56:28;15.20;99.90
34646;DHT22;20857;47.808;12.482;2022-09-09T05:58:55;15.20;99.90
34646;DHT22;20857;47.808;12.482;2022-09-09T06:01:24;15.30;99.90
34646;DHT22;20857;47.808;12.482;2022-09-09T06:03:50;15.30;99.90
34646;DHT22;20857;47.808;12.482;2022-09-09T06:06:25;15.30;99.90
34646;DHT22;20857;47.808;12.482;2022-09-09T06:08:52;15.40;99.90
34646;DHT22;20857;47.808;12.482;2022-09-09T06:11:21;15.40;99.90
34646;DHT22;20857;47.808;12.482;2022-09-09T06:13:48;15.50;99.90
34646;DHT22;20857;47.808;12.482;2022-09-09T06:16:18;15.50;99.90
34646;DHT22;20857;47.808;12.482;2022-09-09T06:18:44;15.60;99.90
34646;DHT22;20857;47.808;12.482;2022-09-09T06:21:27;15.70;99.90
34646;DHT22;20857;47.808;12.482;2022-09-09T06:23:53;15.60;99.90
34646;DHT22;20857;47.808;12.482;2022-09-09T06:26:23;15.60;99.90
34646;DHT22;20857;47.808;12.482;2022-09-09T06:28:52;15.60;99.90
34646;DHT22;20857;47.808;12.482;2022-09-09T06:31:20;15.70;99.90
34646;DHT22;20857;47.808;12.482;2022-09-09T06:33:51;15.70;99.90
34646;DHT22;20857;47.808;12.482;2022-09-09T06:36:19;15.60;99.90
34646;DHT22;20857;47.808;12.482;2022-09-09T06:38:45;15.70;99.90
34646;DHT22;20857;47.808;12.482;2022-09-09T06:41:13;15.60;99.90
34646;DHT22;20857;47.808;12.482;2022-09-09T06:43:39;15.60;99.90
34646;DHT22;20857;47.808;12.482;2022-09-09T06:46:07;15.60;99.90
34646;DHT22;20857;47.808;12.482;2022-09-09T06:48:34;15.60;99.90
34646;DHT22;20857;47.808;12.482;2022-09-09T06:53:39;15.60;99.90
34646;DHT22;20857;47.808;12.482;2022-09-09T06:56:17;15.60;99.90
34646;DHT22;20857;47.808;12.482;2022-09-09T06:58:44;15.60;99.90
34646;DHT22;20857;47.808;12.482;2022-09-09T07:01:12;15.60;99.90
34646;DHT22;20857;47.808;12.482;2022-09-09T07:03:39;15.60;99.90
34646;DHT22;20857;47.808;12.482;2022-09-09T07:06:06;15.60;99.90
34646;DHT22;20857;47.808;12.482;2022-09-09T07:08:33;15.60;99.90
34646;DHT22;20857;47.808;12.482;2022-09-09T07:11:06;15.70;99.90
34646;DHT22;20857;47.808;12.482;2022-09-09T07:13:32;15.60;99.90
34646;DHT22;20857;47.808;12.482;2022-09-09T07:16:05;15.60;99.90
34646;DHT22;20857;47.808;12.482;2022-09-09T07:18:31;15.60;99.90
34646;DHT22;20857;47.808;12.482;2022-09-09T07:20:58;15.50;99.90
34646;DHT22;20857;47.808;12.482;2022-09-09T07:23:25;15.50;99.90
34646;DHT22;20857;47.808;12.482;2022-09-09T07:31:02;15.60;99.90
34646;DHT22;20857;47.808;12.482;2022-09-09T07:33:29;15.70;99.90
34646;DHT22;20857;47.808;12.482;2022-09-09T07:42:53;15.90;99.90
34646;DHT22;20857;47.808;12.482;2022-09-09T07:45:19;16.00;99.90
34646;DHT22;20857;47.808;12.482;2022-09-09T08:03:23;15.90;99.90
34646;DHT22;20857;47.808;12.482;2022-09-09T08:39:22;15.80;99.90
34646;DHT22;20857;47.808;12.482;2022-09-09T08:48:10;16.00;99.90
34646;DHT22;20857;47.808;12.482;2022-09-09T08:50:39;15.60;99.90
34646;DHT22;20857;47.808;12.482;2022-09-09T08:55:50;16.20;99.90
34646;DHT22;20857;47.808;12.482;2022-09-09T08:58:24;16.10;99.90
34646;DHT22;20857;47.808;12.482;2022-09-09T09:01:09;16.20;99.90
34646;DHT22;20857;47.808;12.482;2022-09-09T09:07:11;16.20;99.90
34646;DHT22;20857;47.808;12.482;2022-09-09T09:12:35;16.40;99.90
34646;DHT22;20857;47.808;12.482;2022-09-09T09:15:02;16.40;99.90
34646;DHT22;20857;47.808;12.482;2022-09-09T09:17:34;16.40;99.90
34646;DHT22;20857;47.808;12.482;2022-09-09T09:20:11;16.40;99.90
34646;DHT22;20857;47.808;12.482;2022-09-09T09:22:54;16.50;99.90
34646;DHT22;20857;47.808;12.482;2022-09-09T09:25:32;16.50;99.90
34646;DHT22;20857;47.808;12.482;2022-09-09T09:28:12;16.60;99.90
34646;DHT22;20857;47.808;12.482;2022-09-09T09:30:47;16.60;99.90
34646;DHT22;20857;47.808;12.482;2022-09-09T09:35:51;16.60;99.90
34646;DHT22;20857;47.808;12.482;2022-09-09T09:38:17;16.60;99.90
34646;DHT22;20857;47.808;12.482;2022-09-09T09:40:56;16.60;99.90
34646;DHT22;20857;47.808;12.482;2022-09-09T09:43:31;16.60;99.90
34646;DHT22;20857;47.808;12.482;2022-09-09T09:45:58;16.60;99.90
34646;DHT22;20857;47.808;12.482;2022-09-09T09:48:25;16.40;99.90
34646;DHT22;20857;47.808;12.482;2022-09-09T09:50:57;16.20;99.90
34646;DHT22;20857;47.808;12.482;2022-09-09T09:53:30;16.10;99.90
34646;DHT22;20857;47.808;12.482;2022-09-09T09:56:01;16.10;99.90
34646;DHT22;20857;47.808;12.482;2022-09-09T09:58:30;16.30;99.90
34646;DHT22;20857;47.808;12.482;2022-09-09T10:01:00;16.20;99.90
34646;DHT22;20857;47.808;12.482;2022-09-09T10:03:33;16.10;99.90
34646;DHT22;20857;47.808;12.482;2022-09-09T10:06:05;16.00;99.90
34646;DHT22;20857;47.808;12.482;2022-09-09T10:08:34;16.00;99.90
34646;DHT22;20857;47.808;12.482;2022-09-09T10:14:21;15.90;99.90
34646;DHT22;20857;47.808;12.482;2022-09-09T10:17:03;15.90;99.90
34646;DHT22;20857;47.808;12.482;2022-09-09T10:19:32;16.00;99.90
34646;DHT22;20857;47.808;12.482;2022-09-09T10:30:11;16.30;99.90
34646;DHT22;20857;47.808;12.482;2022-09-09T10:33:04;16.20;99.90
34646;DHT22;20857;47.808;12.482;2022-09-09T10:35:58;16.40;99.90
34646;DHT22;20857;47.808;12.482;2022-09-09T10:38:42;16.50;99.90
34646;DHT22;20857;47.808;12.482;2022-09-09T10:41:24;16.60;99.90
34646;DHT22;20857;47.808;12.482;2022-09-09T10:52:32;17.60;99.90
34646;DHT22;20857;47.808;12.482;2022-09-09T10:55:15;17.40;99.90
34646;DHT22;20857;47.808;12.482;2022-09-09T11:00:24;17.20;99.90
34646;DHT22;20857;47.808;12.482;2022-09-09T11:03:01;17.10;99.90
34646;DHT22;20857;47.808;12.482;2022-09-09T11:05:41;17.20;99.90
34646;DHT22;20857;47.808;12.482;2022-09-09T11:08:20;16.90;99.90
34646;DHT22;20857;47.808;12.482;2022-09-09T11:11:02;16.80;99.90
34646;DHT22;20857;47.808;12.482;2022-09-09T11:13:55;16.80;99.90
34646;DHT22;20857;47.808;12.482;2022-09-09T11:24:57;16.70;99.90
34646;DHT22;20857;47.808;12.482;2022-09-09T11:38:47;17.00;99.90
34646;DHT22;20857;47.808;12.482;2022-09-09T11:41:16;17.00;99.90
34646;DHT22;20857;47.808;12.482;2022-09-09T11:43:51;17.10;99.90
34646;DHT22;20857;47.808;12.482;2022-09-09T11:46:22;17.00;99.90
34646;DHT22;20857;47.808;12.482;2022-09-09T11:49:00;16.90;99.90
34646;DHT22;20857;47.808;12.482;2022-09-09T11:51:31;16.90;99.90
34646;DHT22;20857;47.808;12.482;2022-09-09T11:53:58;17.00;99.90
34646;DHT22;20857;47.808;12.482;2022-09-09T11:56:44;16.90;99.90
34646;DHT22;20857;47.808;12.482;2022-09-09T12:10:05;17.30;99.90
34646;DHT22;20857;47.808;12.482;2022-09-09T12:12:44;17.10;99.90
34646;DHT22;20857;47.808;12.482;2022-09-09T12:17:47;17.50;99.90
34646;DHT22;20857;47.808;12.482;2022-09-09T12:23:42;17.70;99.90
34646;DHT22;20857;47.808;12.482;2022-09-09T12:26:03;17.60;99.90
34646;DHT22;20857;47.808;12.482;2022-09-09T12:28:53;17.70;99.90
34646;DHT22;20857;47.808;12.482;2022-09-09T12:36:58;18.10;99.90
34646;DHT22;20857;47.808;12.482;2022-09-09T12:39:39;18.00;99.90
34646;DHT22;20857;47.808;12.482;2022-09-09T12:42:18;18.00;99.90
34646;DHT22;20857;47.808;12.482;2022-09-09T12:44:58;18.10;99.90
34646;DHT22;20857;47.808;12.482;2022-09-09T12:47:41;17.90;99.90
34646;DHT22;20857;47.808;12.482;2022-09-09T12:50:32;18.10;99.90
34646;DHT22;20857;47.808;12.482;2022-09-09T12:53:02;18.20;99.90
34646;DHT22;20857;47.808;12.482;2022-09-09T12:55:32;18.20;99.90
34646;DHT22;20857;47.808;12.482;2022-09-09T12:57:59;18.20;99.90
34646;DHT22;20857;47.808;12.482;2022-09-09T13:00:28;18.10;99.90
34646;DHT22;20857;47.808;12.482;2022-09-09T13:02:58;18.30;99.90
34646;DHT22;20857;47.808;12.482;2022-09-09T13:05:31;18.20;99.90
34646;DHT22;20857;47.808;12.482;2022-09-09T13:08:10;18.20;99.90
34646;DHT22;20857;47.808;12.482;2022-09-09T13:10:55;18.30;99.90
34646;DHT22;20857;47.808;12.482;2022-09-09T13:13:26;18.30;99.90
34646;DHT22;20857;47.808;12.482;2022-09-09T13:15:58;18.20;99.90
34646;DHT22;20857;47.808;12.482;2022-09-09T13:18:40;18.30;99.90
34646;DHT22;20857;47.808;12.482;2022-09-09T13:21:06;18.40;99.90
34646;DHT22;20857;47.808;12.482;2022-09-09T13:23:36;18.40;99.90
34646;DHT22;20857;47.808;12.482;2022-09-09T13:26:21;18.40;99.90
34646;DHT22;20857;47.808;12.482;2022-09-09T13:28:48;18.40;99.90
34646;DHT22;20857;47.808;12.482;2022-09-09T13:31:28;18.30;99.90
34646;DHT22;20857;47.808;12.482;2022-09-09T13:33:55;18.50;99.90
34646;DHT22;20857;47.808;12.482;2022-09-09T13:36:29;18.60;99.90
34646;DHT22;20857;47.808;12.482;2022-09-09T13:38:57;18.50;99.90
34646;DHT22;20857;47.808;12.482;2022-09-09T13:41:36;18.60;99.90
34646;DHT22;20857;47.808;12.482;2022-09-09T13:44:14;18.60;99.90
34646;DHT22;20857;47.808;12.482;2022-09-09T13:46:42;18.70;99.90
34646;DHT22;20857;47.808;12.482;2022-09-09T13:54:06;18.80;99.90
34646;DHT22;20857;47.808;12.482;2022-09-09T13:56:35;18.70;99.90
34646;DHT22;20857;47.808;12.482;2022-09-09T13:59:01;18.90;99.90
34646;DHT22;20857;47.808;12.482;2022-09-09T14:01:27;19.10;99.90
34646;DHT22;20857;47.808;12.482;2022-09-09T14:03:53;19.30;99.90
34646;DHT22;20857;47.808;12.482;2022-09-09T14:06:19;19.60;99.90
34646;DHT22;20857;47.808;12.482;2022-09-09T14:08:44;19.90;99.90
34646;DHT22;20857;47.808;12.482;2022-09-09T14:11:12;20.10;99.90
34646;DHT22;20857;47.808;12.482;2022-09-09T14:13:38;20.10;99.90
34646;DHT22;20857;47.808;12.482;2022-09-09T14:16:04;20.10;99.90
34646;DHT22;20857;47.808;12.482;2022-09-09T14:18:29;20.20;99.90
34646;DHT22;20857;47.808;12.482;2022-09-09T14:20:55;20.40;99.90
34646;DHT22;20857;47.808;12.482;2022-09-09T14:23:22;20.50;99.90
34646;DHT22;20857;47.808;12.482;2022-09-09T14:25:48;20.40;99.90
34646;DHT22;20857;47.808;12.482;2022-09-09T14:28:14;20.40;99.90
34646;DHT22;20857;47.808;12.482;2022-09-09T14:30:41;20.20;99.90
34646;DHT22;20857;47.808;12.482;2022-09-09T14:33:09;20.20;99.90
34646;DHT22;20857;47.808;12.482;2022-09-09T14:35:37;20.20;99.90
34646;DHT22;20857;47.808;12.482;2022-09-09T14:38:05;20.10;99.90
34646;DHT22;20857;47.808;12.482;2022-09-09T14:40:30;20.00;99.90
34646;DHT22;20857;47.808;12.482;2022-09-09T14:42:58;20.10;99.90
34646;DHT22;20857;47.808;12.482;2022-09-09T14:45:25;20.10;99.90
34646;DHT22;20857;47.808;12.482;2022-09-09T14:47:52;20.20;99.90
34646;DHT22;20857;47.808;12.482;2022-09-09T14:50:19;20.00;99.90
34646;DHT22;20857;47.808;12.482;2022-09-09T14:52:45;20.00;99.90
34646;DHT22;20857;47.808;12.482;2022-09-09T14:55:10;19.80;99.90
34646;DHT22;20857;47.808;12.482;2022-09-09T14:57:36;19.60;99.90
34646;DHT22;20857;47.808;12.482;2022-09-09T15:00:04;19.40;99.90
34646;DHT22;20857;47.808;12.482;2022-09-09T15:02:31;19.20;99.90
34646;DHT22;20857;47.808;12.482;2022-09-09T15:04:57;19.00;99.90
34646;DHT22;20857;47.808;12.482;2022-09-09T15:07:25;18.70;99.90
34646;DHT22;20857;47.808;12.482;2022-09-09T15:09:52;18.40;99.90
34646;DHT22;20857;47.808;12.482;2022-09-09T15:12:19;18.30;99.90
34646;DHT22;20857;47.808;12.482;2022-09-09T15:14:53;18.10;99.90
34646;DHT22;20857;47.808;12.482;2022-09-09T15:17:20;18.00;99.90
34646;DHT22;20857;47.808;12.482;2022-09-09T15:19:46;17.90;99.90
34646;DHT22;20857;47.808;12.482;2022-09-09T15:22:11;17.80;99.90
34646;DHT22;20857;47.808;12.482;2022-09-09T15:24:37;17.70;99.90
34646;DHT22;20857;47.808;12.482;2022-09-09T15:27:03;17.70;99.90
34646;DHT22;20857;47.808;12.482;2022-09-09T15:29:29;17.70;99.90
34646;DHT22;20857;47.808;12.482;2022-09-09T15:31:56;17.80;99.90
34646;DHT22;20857;47.808;12.482;2022-09-09T15:36:57;17.60;99.90
34646;DHT22;20857;47.808;12.482;2022-09-09T15:39:27;17.70;99.90
34646;DHT22;20857;47.808;12.482;2022-09-09T15:41:53;17.70;99.90
34646;DHT22;20857;47.808;12.482;2022-09-09T15:44:18;17.80;99.90
34646;DHT22;20857;47.808;12.482;2022-09-09T15:46:49;17.80;99.90
34646;DHT22;20857;47.808;12.482;2022-09-09T15:49:23;17.80;99.90
34646;DHT22;20857;47.808;12.482;2022-09-09T15:52:00;17.80;99.90
34646;DHT22;20857;47.808;12.482;2022-09-09T15:54:35;17.70;99.90
34646;DHT22;20857;47.808;12.482;2022-09-09T15:57:06;17.60;99.90
34646;DHT22;20857;47.808;12.482;2022-09-09T15:59:35;17.40;99.90
34646;DHT22;20857;47.808;12.482;2022-09-09T16:02:01;17.30;99.90
34646;DHT22;20857;47.808;12.482;2022-09-09T16:04:28;17.20;99.90
34646;DHT22;20857;47.808;12.482;2022-09-09T16:07:02;18.70;99.90
34646;DHT22;20857;47.808;12.482;2022-09-09T16:09:31;17.20;99.90
34646;DHT22;20857;47.808;12.482;2022-09-09T16:12:01;17.20;99.90
34646;DHT22;20857;47.808;12.482;2022-09-09T16:14:28;17.10;99.90
34646;DHT22;20857;47.808;12.482;2022-09-09T16:16:53;17.00;99.90
34646;DHT22;20857;47.808;12.482;2022-09-09T16:19:20;17.00;99.90
34646;DHT22;20857;47.808;12.482;2022-09-09T16:21:48;17.00;99.90
34646;DHT22;20857;47.808;12.482;2022-09-09T16:24:20;16.90;99.90
34646;DHT22;20857;47.808;12.482;2022-09-09T16:26:51;16.90;99.90
34646;DHT22;20857;47.808;12.482;2022-09-09T16:29:17;16.90;99.90
34646;DHT22;20857;47.808;12.482;2022-09-09T16:31:45;16.90;99.90
34646;DHT22;20857;47.808;12.482;2022-09-09T16:34:12;16.90;99.90
34646;DHT22;20857;47.808;12.482;2022-09-09T16:36:43;16.90;99.90
34646;DHT22;20857;47.808;12.482;2022-09-09T16:39:11;16.90;99.90
34646;DHT22;20857;47.808;12.482;2022-09-09T16:41:39;16.90;99.90
34646;DHT22;20857;47.808;12.482;2022-09-09T16:44:06;16.80;99.90
34646;DHT22;20857;47.808;12.482;2022-09-09T16:46:35;16.70;99.90
34646;DHT22;20857;47.808;12.482;2022-09-09T16:49:03;16.60;99.90
34646;DHT22;20857;47.808;12.482;2022-09-09T16:51:37;16.50;99.90
34646;DHT22;20857;47.808;12.482;2022-09-09T16:54:05;16.50;99.90
34646;DHT22;20857;47.808;12.482;2022-09-09T16:56:34;16.40;99.90
34646;DHT22;20857;47.808;12.482;2022-09-09T16:59:05;16.30;99.90
34646;DHT22;20857;47.808;12.482;2022-09-09T17:01:36;16.30;99.90
34646;DHT22;20857;47.808;12.482;2022-09-09T17:04:05;16.20;99.90
34646;DHT22;20857;47.808;12.482;2022-09-09T17:06:32;16.20;99.90
34646;DHT22;20857;47.808;12.482;2022-09-09T17:09:04;16.20;99.90
34646;DHT22;20857;47.808;12.482;2022-09-09T17:11:30;16.10;99.90
34646;DHT22;20857;47.808;12.482;2022-09-09T17:13:57;16.10;99.90
34646;DHT22;20857;47.808;12.482;2022-09-09T17:16:32;16.10;99.90
34646;DHT22;20857;47.808;12.482;2022-09-09T17:19:03;16.00;99.90
34646;DHT22;20857;47.808;12.482;2022-09-09T17:21:31;17.00;99.90
34646;DHT22;20857;47.808;12.482;2022-09-09T17:23:57;16.00;99.90
34646;DHT22;20857;47.808;12.482;2022-09-09T17:26:26;16.00;99.90
34646;DHT22;20857;47.808;12.482;2022-09-09T17:28:52;16.00;99.90
34646;DHT22;20857;47.808;12.482;2022-09-09T17:31:19;16.00;99.90
34646;DHT22;20857;47.808;12.482;2022-09-09T17:33:47;16.00;99.90
34646;DHT22;20857;47.808;12.482;2022-09-09T17:36:25;15.90;99.90
34646;DHT22;20857;47.808;12.482;2022-09-09T17:38:51;15.90;99.90
34646;DHT22;20857;47.808;12.482;2022-09-09T17:41:19;15.80;99.90
34646;DHT22;20857;47.808;12.482;2022-09-09T17:43:46;15.70;99.90
34646;DHT22;20857;47.808;12.482;2022-09-09T17:46:15;15.70;99.90
34646;DHT22;20857;47.808;12.482;2022-09-09T17:48:42;15.80;99.90
34646;DHT22;20857;47.808;12.482;2022-09-09T17:51:11;15.70;99.90
34646;DHT22;20857;47.808;12.482;2022-09-09T17:53:39;15.60;99.90
34646;DHT22;20857;47.808;12.482;2022-09-09T17:56:07;15.70;99.90
34646;DHT22;20857;47.808;12.482;2022-09-09T17:58:33;15.60;99.90
34646;DHT22;20857;47.808;12.482;2022-09-09T18:01:09;15.70;99.90
34646;DHT22;20857;47.808;12.482;2022-09-09T18:03:37;15.70;99.90
34646;DHT22;20857;47.808;12.482;2022-09-09T18:06:05;15.60;99.90
34646;DHT22;20857;47.808;12.482;2022-09-09T18:08:31;15.60;99.90
34646;DHT22;20857;47.808;12.482;2022-09-09T18:10:58;15.60;99.90
34646;DHT22;20857;47.808;12.482;2022-09-09T18:13:25;15.70;99.90
34646;DHT22;20857;47.808;12.482;2022-09-09T18:15:51;15.70;99.90
34646;DHT22;20857;47.808;12.482;2022-09-09T18:18:20;15.70;99.90
34646;DHT22;20857;47.808;12.482;2022-09-09T18:20:55;15.70;99.90
34646;DHT22;20857;47.808;12.482;2022-09-09T18:23:21;15.70;99.90
34646;DHT22;20857;47.808;12.482;2022-09-09T18:25:46;15.60;99.90
34646;DHT22;20857;47.808;12.482;2022-09-09T18:28:13;15.50;99.90
34646;DHT22;20857;47.808;12.482;2022-09-09T18:30:39;15.50;99.90
34646;DHT22;20857;47.808;12.482;2022-09-09T18:33:04;15.30;99.90
34646;DHT22;20857;47.808;12.482;2022-09-09T18:35:30;15.40;99.90
34646;DHT22;20857;47.808;12.482;2022-09-09T18:37:56;15.30;99.90
34646;DHT22;20857;47.808;12.482;2022-09-09T18:40:22;15.30;99.90
34646;DHT22;20857;47.808;12.482;2022-09-09T18:42:48;15.30;99.90
34646;DHT22;20857;47.808;12.482;2022-09-09T18:45:14;15.30;99.90
34646;DHT22;20857;47.808;12.482;2022-09-09T18:47:42;15.20;99.90
34646;DHT22;20857;47.808;12.482;2022-09-09T18:50:09;15.30;99.90
34646;DHT22;20857;47.808;12.482;2022-09-09T18:52:35;15.20;99.90